Time;durP1;ratioP1;P1;durP2;ratioP2;P2;SDS_P1;SDS_P2;PMS_P1;PMS_P2;Temp;Humidity;BMP_temperature;BMP_pressure;BME280_temperature;BME280_humidity;BME280_pressure;Samples;Min_cycle;Max_cycle;Signal;HPM_P1;HPM_P2
2022/06/24 00:01:54;;;;;;;0.52;0.52;;;;;;;23.07;72.41;100372.97;4988882;28;20042;-61
2022/06/24 00:04:30;;;;;;;0.88;0.55;;;;;;;23.09;72.58;100370.56;4992484;28;20050;-62
2022/06/24 00:06:57;;;;;;;0.40;0.40;;;;;;;23.06;71.59;100376.97;4989223;28;20125;-62
2022/06/24 00:09:28;;;;;;;0.90;0.50;;;;;;;23.08;71.70;100379.25;4973272;28;20038;-62
2022/06/24 00:12:10;;;;;;;0.95;0.47;;;;;;;23.09;71.07;100373.31;4994440;28;20120;-62
2022/06/24 00:14:37;;;;;;;0.68;0.45;;;;;;;23.15;71.55;100366.03;4985782;28;20081;-61
2022/06/24 00:17:05;;;;;;;0.63;0.50;;;;;;;23.14;70.26;100371.97;4990535;28;20129;-63
2022/06/24 00:19:34;;;;;;;0.82;0.60;;;;;;;23.05;70.62;100364.41;4994744;28;20132;-62
2022/06/24 00:22:11;;;;;;;0.60;0.47;;;;;;;23.10;70.48;100366.63;4992809;28;20038;-62
2022/06/24 00:24:39;;;;;;;1.25;0.50;;;;;;;23.16;70.37;100367.56;4989200;28;20113;-62
2022/06/24 00:27:25;;;;;;;1.20;0.70;;;;;;;23.13;70.63;100359.47;4985793;28;20034;-62
2022/06/24 00:29:51;;;;;;;0.98;0.70;;;;;;;23.21;69.44;100364.25;4986788;28;20034;-61
2022/06/24 00:35:04;;;;;;;0.45;0.45;;;;;;;23.22;68.83;100352.03;5002151;28;20152;-62
2022/06/24 00:37:31;;;;;;;0.65;0.50;;;;;;;23.26;69.09;100357.41;5008660;28;20489;-62
2022/06/24 00:40:00;;;;;;;0.90;0.60;;;;;;;23.25;68.71;100353.88;5010490;28;20054;-62
2022/06/24 00:42:26;;;;;;;0.60;0.50;;;;;;;23.25;68.79;100353.88;5007205;28;20038;-62
2022/06/24 00:45:20;;;;;;;1.00;0.65;;;;;;;23.25;68.49;100355.84;5008200;28;20038;-60
2022/06/24 00:47:47;;;;;;;0.73;0.52;;;;;;;23.13;68.74;100353.97;5009546;28;20406;-62
2022/06/24 00:50:31;;;;;;;0.60;0.50;;;;;;;23.08;68.88;100349.81;5005899;28;20034;-62
2022/06/24 00:53:00;;;;;;;0.68;0.50;;;;;;;23.07;68.95;100339.25;5004257;28;20530;-62
2022/06/24 00:55:32;;;;;;;0.98;0.50;;;;;;;23.09;68.78;100340.34;5010002;28;20033;-62
2022/06/24 00:57:59;;;;;;;0.50;0.50;;;;;;;22.97;69.28;100343.94;5011001;28;20029;-62
2022/06/24 01:00:27;;;;;;;0.90;0.55;;;;;;;22.97;69.23;100343.94;5003051;28;21683;-62
2022/06/24 01:03:00;;;;;;;0.63;0.43;;;;;;;23.07;68.20;100340.00;5006048;28;20498;-60
2022/06/24 01:05:27;;;;;;;1.27;0.65;;;;;;;23.12;67.80;100333.94;5010939;28;20042;-61
2022/06/24 01:07:52;;;;;;;0.50;0.40;;;;;;;23.05;68.24;100339.69;5006493;28;20072;-62
2022/06/24 01:10:18;;;;;;;0.95;0.68;;;;;;;22.97;68.43;100335.69;5004688;28;20038;-61
2022/06/24 01:12:44;;;;;;;0.60;0.50;;;;;;;22.93;68.71;100335.03;5009665;28;20048;-62
2022/06/24 01:15:10;;;;;;;1.17;0.70;;;;;;;22.92;69.02;100330.75;5025021;28;20041;-62
2022/06/24 01:17:37;;;;;;;0.82;0.52;;;;;;;22.93;68.90;100315.81;5004689;28;20374;-60
2022/06/24 01:20:04;;;;;;;0.80;0.45;;;;;;;22.97;68.78;100316.44;5006961;28;20038;-62
2022/06/24 01:22:30;;;;;;;0.88;0.70;;;;;;;22.93;69.05;100321.31;5009285;28;20033;-62
2022/06/24 01:24:55;;;;;;;0.70;0.57;;;;;;;22.91;68.82;100312.75;5008608;28;20046;-61
2022/06/24 01:27:21;;;;;;;0.60;0.60;;;;;;;22.84;68.64;100312.22;5000250;28;20049;-61
2022/06/24 01:29:47;;;;;;;1.05;0.70;;;;;;;22.85;69.06;100309.03;5005760;28;20046;-61
2022/06/24 01:32:13;;;;;;;0.55;0.55;;;;;;;22.74;69.82;100310.63;5009951;28;20034;-60
2022/06/24 01:34:38;;;;;;;1.65;0.60;;;;;;;22.66;70.16;100303.84;5009321;28;20033;-60
2022/06/24 01:37:04;;;;;;;0.50;0.50;;;;;;;22.58;70.27;100294.31;5002003;28;20033;-61
2022/06/24 01:39:30;;;;;;;1.40;0.70;;;;;;;22.47;70.27;100289.16;5003331;28;20033;-62
2022/06/24 01:41:56;;;;;;;1.05;0.80;;;;;;;22.42;70.98;100289.72;5006737;28;20034;-60
2022/06/24 01:44:22;;;;;;;0.70;0.70;;;;;;;22.38;70.93;100297.31;4999413;28;20486;-62
2022/06/24 01:46:48;;;;;;;0.82;0.63;;;;;;;22.31;71.54;100297.56;5006661;28;20394;-62
2022/06/24 01:49:14;;;;;;;0.98;0.63;;;;;;;22.33;71.27;100284.94;5010066;28;20048;-61
2022/06/24 01:51:41;;;;;;;0.77;0.60;;;;;;;22.35;71.88;100293.50;5001493;28;20045;-61
2022/06/24 01:54:07;;;;;;;0.88;0.63;;;;;;;22.22;71.45;100283.75;5000297;28;20030;-61
2022/06/24 01:56:32;;;;;;;0.57;0.57;;;;;;;22.14;72.76;100287.94;5009878;28;20398;-62
2022/06/24 01:58:58;;;;;;;2.45;0.60;;;;;;;21.94;72.62;100279.97;5008866;28;20030;-62
2022/06/24 02:01:24;;;;;;;0.75;0.60;;;;;;;21.99;72.86;100270.41;5017336;28;20407;-60
2022/06/24 02:03:49;;;;;;;0.65;0.65;;;;;;;22.03;72.91;100277.31;5017602;28;20030;-61
2022/06/24 02:06:17;;;;;;;0.90;0.60;;;;;;;22.03;72.42;100266.31;5009714;28;20564;-62
2022/06/24 02:08:43;;;;;;;1.17;0.75;;;;;;;21.96;72.81;100265.78;5017816;28;20505;-62
2022/06/24 02:13:56;;;;;;;0.63;0.52;;;;;;;21.86;73.52;100266.91;5001803;28;20605;-63
2022/06/24 02:16:23;;;;;;;1.73;0.80;;;;;;;21.78;74.10;100257.34;5002942;28;20037;-61
2022/06/24 02:18:50;;;;;;;0.57;0.57;;;;;;;21.80;73.71;100258.47;5018603;28;20029;-61
2022/06/24 02:21:15;;;;;;;1.63;0.60;;;;;;;21.78;73.87;100249.09;5008135;28;20451;-62
2022/06/24 02:23:42;;;;;;;0.65;0.40;;;;;;;21.70;73.97;100250.56;5008289;28;20128;-61
2022/06/24 02:26:08;;;;;;;1.85;1.00;;;;;;;21.66;74.32;100247.91;5003916;28;20101;-60
2022/06/24 02:28:37;;;;;;;3.90;0.80;;;;;;;21.60;75.15;100251.66;5005917;28;20041;-60
2022/06/24 02:31:03;;;;;;;0.50;0.47;;;;;;;21.47;74.44;100243.44;5000330;28;20483;-59
2022/06/24 02:33:29;;;;;;;1.13;0.73;;;;;;;21.45;74.87;100246.59;5005907;28;20033;-61
2022/06/24 02:35:55;;;;;;;0.95;0.47;;;;;;;21.41;75.36;100256.13;5009509;28;20036;-60
2022/06/24 02:38:21;;;;;;;0.60;0.60;;;;;;;21.28;75.60;100242.44;5000748;28;20038;-59
2022/06/24 02:40:47;;;;;;;0.93;0.73;;;;;;;21.36;75.63;100232.81;5002025;28;20034;-57
2022/06/24 02:43:17;;;;;;;1.50;0.68;;;;;;;21.42;75.64;100236.53;5020578;28;20042;-62
2022/06/24 02:45:47;;;;;;;0.38;0.38;;;;;;;21.26;76.30;100236.63;4999033;28;20078;-61
2022/06/24 02:48:14;;;;;;;0.85;0.70;;;;;;;21.35;75.52;100234.00;4999300;28;20069;-60
2022/06/24 02:50:42;;;;;;;1.05;0.70;;;;;;;21.41;75.28;100224.03;5000482;28;20109;-62
2022/06/24 02:53:08;;;;;;;0.70;0.65;;;;;;;21.43;75.02;100221.63;4996978;28;20050;-62
2022/06/24 02:55:34;;;;;;;0.90;0.70;;;;;;;21.48;74.08;100215.59;5000393;28;20459;-62
2022/06/24 02:57:59;;;;;;;0.70;0.70;;;;;;;21.53;74.25;100217.78;5009581;28;20116;-62
2022/06/24 03:00:25;;;;;;;0.70;0.50;;;;;;;21.48;74.17;100212.84;5006670;28;20087;-61
2022/06/24 03:02:51;;;;;;;0.85;0.85;;;;;;;21.44;73.95;100211.44;5002932;28;20042;-62
2022/06/24 03:05:16;;;;;;;0.88;0.60;;;;;;;21.48;74.02;100212.09;5009005;28;20084;-62
2022/06/24 03:07:42;;;;;;;0.45;0.45;;;;;;;21.39;74.77;100215.47;5012780;28;20041;-62
2022/06/24 03:10:09;;;;;;;0.50;0.40;;;;;;;21.35;75.55;100211.31;5007790;28;20163;-62
2022/06/24 03:12:34;;;;;;;0.98;0.50;;;;;;;21.31;75.06;100205.94;5004694;28;20046;-61
2022/06/24 03:15:00;;;;;;;1.63;0.45;;;;;;;21.42;73.92;100206.41;5011021;28;20018;-61
2022/06/24 03:17:25;;;;;;;1.63;0.80;;;;;;;21.50;73.53;100210.41;5013003;28;20030;-61
2022/06/24 03:19:51;;;;;;;0.63;0.63;;;;;;;21.39;73.53;100193.56;5005705;28;20021;-64
2022/06/24 03:22:16;;;;;;;1.27;0.75;;;;;;;21.33;73.53;100187.09;5011405;28;20076;-63
2022/06/24 03:24:42;;;;;;;1.35;0.75;;;;;;;21.40;73.36;100186.88;5011337;28;20030;-63
2022/06/24 03:27:07;;;;;;;1.33;0.75;;;;;;;21.52;73.04;100174.38;5012464;28;20041;-64
2022/06/24 03:29:33;;;;;;;0.98;0.80;;;;;;;21.57;73.47;100179.28;5012556;28;20028;-64
2022/06/24 03:31:58;;;;;;;0.70;0.70;;;;;;;21.46;73.15;100185.13;5009149;28;20036;-63
2022/06/24 03:34:24;;;;;;;0.68;0.60;;;;;;;21.56;73.17;100196.97;5003468;28;20419;-62
2022/06/24 03:37:10;;;;;;;2.67;1.42;;;;;;;21.54;72.65;100175.44;4999552;28;20034;-62
2022/06/24 03:39:36;;;;;;;0.93;0.70;;;;;;;21.50;72.47;100165.81;4966664;28;20054;-62
2022/06/24 03:42:02;;;;;;;0.80;0.80;;;;;;;21.57;72.39;100165.59;4968783;28;20126;-63
2022/06/24 03:44:28;;;;;;;1.85;0.90;;;;;;;21.61;72.85;100162.72;4966808;28;20479;-60
2022/06/24 03:46:54;;;;;;;2.92;0.70;;;;;;;21.64;72.32;100157.13;4969589;28;20037;-62
2022/06/24 03:49:19;;;;;;;0.80;0.70;;;;;;;21.67;72.27;100150.75;4970243;28;20094;-63
2022/06/24 03:51:46;;;;;;;0.75;0.73;;;;;;;21.69;72.00;100148.34;4970514;28;20497;-62
2022/06/24 03:54:11;;;;;;;0.63;0.60;;;;;;;21.70;72.23;100151.88;4969615;28;20033;-63
2022/06/24 03:56:37;;;;;;;1.08;0.60;;;;;;;21.75;72.36;100143.06;4953602;28;20042;-63
2022/06/24 03:59:03;;;;;;;0.63;0.50;;;;;;;21.69;72.32;100136.59;4970465;28;20034;-63
2022/06/24 04:01:28;;;;;;;3.22;0.70;;;;;;;21.73;72.71;100131.78;4970268;28;20113;-62
2022/06/24 04:03:54;;;;;;;0.80;0.60;;;;;;;21.61;71.84;100129.81;4968697;28;20050;-63
2022/06/24 04:06:20;;;;;;;1.00;0.90;;;;;;;21.42;72.50;100128.88;4959955;28;20031;-63
2022/06/24 04:08:45;;;;;;;1.10;0.55;;;;;;;21.43;73.17;100122.19;4967104;28;20149;-63
2022/06/24 04:11:12;;;;;;;1.08;0.60;;;;;;;21.62;72.87;100125.88;4959210;28;20042;-62
2022/06/24 04:13:38;;;;;;;0.47;0.47;;;;;;;21.77;71.86;100122.22;4966365;28;20043;-63
2022/06/24 04:16:04;;;;;;;0.70;0.60;;;;;;;21.83;72.13;100116.97;4980477;28;20405;-64
2022/06/24 04:18:30;;;;;;;1.10;0.75;;;;;;;21.79;71.87;100117.06;5011423;28;20541;-64
2022/06/24 04:20:56;;;;;;;0.80;0.60;;;;;;;21.90;71.31;100111.22;5009128;28;20062;-63
2022/06/24 04:23:22;;;;;;;1.88;0.77;;;;;;;21.97;71.45;100111.00;5009697;28;20093;-64
2022/06/24 04:25:48;;;;;;;0.60;0.57;;;;;;;21.98;71.35;100101.53;5011300;28;20072;-63
2022/06/24 04:28:14;;;;;;;0.93;0.68;;;;;;;22.02;71.15;100104.94;5011405;28;20088;-63
2022/06/24 04:30:39;;;;;;;0.73;0.65;;;;;;;22.05;70.94;100101.28;5010178;28;20045;-63
2022/06/24 04:33:05;;;;;;;0.80;0.60;;;;;;;22.00;70.61;100101.88;5001124;28;20514;-63
2022/06/24 04:35:30;;;;;;;0.95;0.65;;;;;;;22.06;70.91;100089.88;5002350;28;20055;-63
2022/06/24 04:37:56;;;;;;;0.70;0.63;;;;;;;22.08;71.46;100092.94;5009629;28;20040;-64
2022/06/24 04:40:42;;;;;;;1.38;0.63;;;;;;;22.10;70.79;100084.28;5009174;28;20022;-63
2022/06/24 04:43:08;;;;;;;1.35;0.90;;;;;;;22.18;70.80;100094.53;4976511;28;20570;-62
2022/06/24 04:45:34;;;;;;;1.30;0.95;;;;;;;22.25;71.13;100099.78;4979601;28;20070;-62
2022/06/24 04:48:20;;;;;;;1.13;0.75;;;;;;;22.31;71.57;100119.16;4985238;28;20042;-63
2022/06/24 04:50:46;;;;;;;0.65;0.65;;;;;;;22.38;70.84;100111.44;4908134;29;20537;-63
2022/06/24 04:53:11;;;;;;;1.17;0.85;;;;;;;22.43;70.84;100110.84;4895419;29;20087;-63
2022/06/24 04:55:36;;;;;;;1.63;0.68;;;;;;;22.15;70.71;100113.88;4908002;29;21316;-64
2022/06/24 04:58:02;;;;;;;0.85;0.73;;;;;;;22.33;70.22;100119.50;4912802;29;20035;-63
2022/06/24 05:00:28;;;;;;;0.88;0.60;;;;;;;22.38;70.68;100102.44;4906334;29;20131;-62
2022/06/24 05:02:53;;;;;;;0.80;0.70;;;;;;;22.52;70.53;100101.91;4906810;29;20112;-64
2022/06/24 05:05:19;;;;;;;1.48;0.80;;;;;;;22.62;69.80;100103.53;4906020;29;20529;-63
2022/06/24 05:07:44;;;;;;;1.88;0.93;;;;;;;22.57;70.29;100090.38;4909739;29;20600;-64
2022/06/24 05:10:10;;;;;;;1.85;0.80;;;;;;;22.75;70.23;100093.19;4910821;29;20129;-64
2022/06/24 05:12:35;;;;;;;1.80;0.82;;;;;;;22.82;70.18;100092.19;4889101;29;20059;-63
2022/06/24 05:15:01;;;;;;;0.77;0.77;;;;;;;23.01;69.07;100091.78;4906455;29;20205;-62
2022/06/24 05:17:27;;;;;;;0.73;0.57;;;;;;;23.56;67.85;100087.19;4909236;29;20032;-64
2022/06/24 05:19:53;;;;;;;2.78;1.10;;;;;;;24.03;63.85;100092.28;4914576;29;20054;-64
2022/06/24 05:22:19;;;;;;;0.88;0.82;;;;;;;24.71;62.59;100088.00;4927258;29;20043;-64
2022/06/24 05:24:44;;;;;;;1.58;0.77;;;;;;;25.17;60.46;100083.81;4915905;29;20038;-64
2022/06/24 05:27:10;;;;;;;2.55;0.80;;;;;;;25.21;59.92;100078.91;4942613;28;20046;-64
2022/06/24 05:29:35;;;;;;;0.85;0.63;;;;;;;25.58;59.17;100071.16;4994581;28;20037;-62
2022/06/24 05:32:01;;;;;;;1.10;0.70;;;;;;;25.82;58.08;100078.16;4999117;28;20156;-64
2022/06/24 05:34:27;;;;;;;1.10;0.80;;;;;;;25.76;58.34;100073.78;4987137;28;20029;-64
2022/06/24 05:36:52;;;;;;;1.60;0.63;;;;;;;25.81;57.60;100062.84;4986536;28;20033;-63
2022/06/24 05:39:18;;;;;;;0.60;0.52;;;;;;;25.98;58.27;100067.94;4997306;28;20029;-62
2022/06/24 05:41:43;;;;;;;1.25;1.08;;;;;;;26.30;57.14;100072.53;4999916;28;20044;-64
2022/06/24 05:44:10;;;;;;;0.77;0.70;;;;;;;26.27;56.52;100062.44;4999730;28;20073;-62
2022/06/24 05:46:36;;;;;;;0.98;0.85;;;;;;;26.43;55.03;100065.50;4998891;28;20802;-62
2022/06/24 05:49:02;;;;;;;0.70;0.70;;;;;;;26.67;54.63;100063.34;5001545;28;20117;-64
2022/06/24 05:51:28;;;;;;;1.33;0.95;;;;;;;26.94;55.30;100067.81;5002622;28;20108;-62
2022/06/24 05:56:38;;;;;;;1.30;0.80;;;;;;;25.75;55.70;100067.50;5005390;28;20060;-62
2022/06/24 05:59:04;;;;;;;0.77;0.77;;;;;;;26.25;55.27;100062.91;5001794;28;20333;-63
2022/06/24 06:01:30;;;;;;;0.95;0.88;;;;;;;26.49;55.36;100054.53;5001754;28;20033;-59
2022/06/24 06:03:56;;;;;;;1.67;1.02;;;;;;;26.77;55.06;100053.72;5001472;28;20104;-61
2022/06/24 06:06:22;;;;;;;1.52;0.70;;;;;;;27.00;53.76;100059.59;4999299;28;20064;-63
2022/06/24 06:08:48;;;;;;;1.38;0.80;;;;;;;27.01;53.70;100050.03;4985936;28;20105;-63
2022/06/24 06:11:19;;;;;;;0.60;0.60;;;;;;;27.09;53.87;100049.16;4996451;28;20042;-63
2022/06/24 06:13:45;;;;;;;;;;;;;;;27.25;53.26;100040.34;4998480;28;20099;-62
2022/06/24 06:16:11;;;;;;;0.95;0.70;;;;;;;27.33;53.11;100038.69;4992011;28;20321;-63
2022/06/24 06:18:37;;;;;;;0.98;0.75;;;;;;;27.42;53.39;100043.31;4999398;28;20495;-63
2022/06/24 06:21:05;;;;;;;0.98;0.90;;;;;;;27.56;52.76;100037.69;5001271;28;20446;-64
2022/06/24 06:23:31;;;;;;;1.00;0.70;;;;;;;27.17;53.11;100035.69;4995149;28;20031;-63
2022/06/24 06:25:57;;;;;;;1.27;0.93;;;;;;;27.31;52.95;100043.91;5003493;28;20038;-63
2022/06/24 06:28:23;;;;;;;0.98;0.70;;;;;;;27.50;52.41;100038.91;5003240;28;20466;-61
2022/06/24 06:30:49;;;;;;;1.23;0.82;;;;;;;27.75;52.41;100038.16;5004051;28;20091;-62
2022/06/24 06:33:14;;;;;;;1.60;0.80;;;;;;;27.65;52.61;100042.34;5038181;22;20105;-61
2022/06/24 06:35:40;;;;;;;1.40;1.05;;;;;;;27.72;50.68;100035.63;5043490;28;20462;-64
2022/06/24 06:38:06;;;;;;;2.30;1.08;;;;;;;27.57;51.49;100021.84;5045894;28;20099;-64
2022/06/24 06:40:36;;;;;;;2.13;1.08;;;;;;;27.68;51.64;100035.81;5043072;28;20176;-61
2022/06/24 06:43:02;;;;;;;1.13;0.90;;;;;;;27.71;52.46;100032.09;5048086;28;20560;-61
2022/06/24 06:45:28;;;;;;;1.52;1.00;;;;;;;27.80;52.49;100037.47;5040650;28;20124;-62
2022/06/24 06:47:54;;;;;;;1.17;0.95;;;;;;;27.72;51.36;100036.34;5041796;28;20033;-60
2022/06/24 06:50:19;;;;;;;0.98;0.82;;;;;;;27.84;51.40;100031.69;5039144;28;20072;-61
2022/06/24 06:52:45;;;;;;;1.38;0.82;;;;;;;27.49;51.29;100026.28;5041255;28;20039;-61
2022/06/24 06:55:10;;;;;;;0.95;0.75;;;;;;;27.70;51.19;100044.38;5041935;28;20078;-61
2022/06/24 06:57:36;;;;;;;1.63;1.00;;;;;;;27.84;51.35;100051.06;5048539;28;20052;-61
2022/06/24 07:00:03;;;;;;;1.00;0.80;;;;;;;27.98;52.47;100067.63;5041352;28;20098;-62
2022/06/24 07:02:28;;;;;;;0.85;0.80;;;;;;;27.54;52.18;100067.13;5044430;28;21522;-61
2022/06/24 07:04:54;;;;;;;1.95;1.10;;;;;;;27.85;50.74;100061.69;5042509;28;20067;-61
2022/06/24 07:07:19;;;;;;;1.05;0.80;;;;;;;27.75;50.86;100065.84;5037334;28;20117;-62
2022/06/24 07:09:45;;;;;;;1.05;0.80;;;;;;;28.11;50.50;100078.31;5045524;28;20041;-61
2022/06/24 07:12:11;;;;;;;1.02;0.85;;;;;;;27.95;51.04;100062.31;5032696;28;20466;-61
2022/06/24 07:14:40;;;;;;;1.15;0.90;;;;;;;27.44;52.23;100065.75;5038586;28;20033;-61
2022/06/24 07:17:05;;;;;;;1.35;0.95;;;;;;;27.07;53.13;100061.94;5033585;28;20063;-61
2022/06/24 07:19:31;;;;;;;1.48;1.10;;;;;;;27.19;52.49;100053.31;5038635;28;20086;-60
2022/06/24 07:21:56;;;;;;;1.02;0.93;;;;;;;27.32;53.26;100056.53;5033587;28;20030;-61
2022/06/24 07:24:22;;;;;;;1.13;0.88;;;;;;;27.47;53.98;100043.38;5047911;28;20041;-62
2022/06/24 07:26:47;;;;;;;1.80;0.70;;;;;;;27.56;53.75;100032.16;5045775;28;20029;-63
2022/06/24 07:29:13;;;;;;;1.38;1.20;;;;;;;27.52;51.77;100030.88;5047536;28;20045;-62
2022/06/24 07:31:39;;;;;;;0.90;0.80;;;;;;;27.86;53.83;100034.75;5046794;28;20481;-61
2022/06/24 07:34:05;;;;;;;1.30;1.00;;;;;;;28.02;53.06;100034.19;5045411;28;20033;-62
2022/06/24 07:36:30;;;;;;;2.55;1.10;;;;;;;28.11;51.43;100032.00;5041384;28;20047;-61
2022/06/24 07:38:56;;;;;;;1.92;1.17;;;;;;;28.24;51.42;100032.34;5041464;28;20612;-61
2022/06/24 07:41:21;;;;;;;1.20;0.98;;;;;;;28.47;51.20;100042.38;5039910;28;21537;-62
2022/06/24 07:43:47;;;;;;;1.17;0.98;;;;;;;28.64;50.21;100027.91;5033531;28;20033;-62
2022/06/24 07:46:12;;;;;;;1.45;0.90;;;;;;;28.74;50.49;100032.00;5035739;28;20041;-62
2022/06/24 07:48:38;;;;;;;1.23;0.90;;;;;;;28.70;49.46;100029.47;5040632;28;20151;-62
2022/06/24 07:51:16;;;;;;;1.30;0.90;;;;;;;28.43;50.48;100024.47;5043350;28;20031;-62
2022/06/24 07:53:45;;;;;;;1.00;0.90;;;;;;;28.04;50.87;100029.69;5040512;28;20398;-63
2022/06/24 07:58:55;;;;;;;1.55;1.10;;;;;;;28.86;52.08;100028.81;5040792;28;20035;-62
2022/06/24 08:01:21;;;;;;;1.05;0.95;;;;;;;29.04;50.94;100016.53;5036757;28;20033;-62
2022/06/24 08:03:46;;;;;;;1.67;1.17;;;;;;;29.37;49.85;100025.03;5041452;28;20749;-63
2022/06/24 08:06:12;;;;;;;6.28;1.30;;;;;;;29.28;49.84;100023.25;5041521;28;20040;-63
2022/06/24 08:08:38;;;;;;;1.00;0.93;;;;;;;29.03;50.31;100012.25;5038656;28;20493;-63
2022/06/24 08:11:04;;;;;;;1.10;0.95;;;;;;;29.50;48.71;100008.69;5043923;28;20037;-62
2022/06/24 08:13:30;;;;;;;1.23;0.95;;;;;;;29.78;47.96;100006.75;5041380;28;20025;-63
2022/06/24 08:15:56;;;;;;;1.10;1.00;;;;;;;29.00;48.63;99993.81;5043631;28;20477;-63
2022/06/24 08:18:22;;;;;;;1.23;0.93;;;;;;;29.61;47.52;99994.84;5041439;28;20658;-63
2022/06/24 08:20:48;;;;;;;0.90;0.88;;;;;;;29.67;47.59;99986.53;5046958;28;20032;-62
2022/06/24 08:23:14;;;;;;;1.20;1.10;;;;;;;29.97;46.47;99982.03;5043662;28;20107;-63
2022/06/24 08:25:39;;;;;;;0.85;0.80;;;;;;;30.35;47.13;99983.31;5042397;28;20143;-62
2022/06/24 08:28:05;;;;;;;2.05;1.27;;;;;;;30.78;46.76;99985.25;5040098;28;20060;-62
2022/06/24 08:30:31;;;;;;;1.30;1.00;;;;;;;31.01;45.46;99980.41;5043862;28;20040;-62
2022/06/24 08:32:56;;;;;;;1.02;0.88;;;;;;;30.94;44.06;99969.81;5037403;28;20081;-63
2022/06/24 08:35:22;;;;;;;1.25;0.80;;;;;;;31.04;44.92;99968.25;5039537;28;20076;-62
2022/06/24 08:37:47;;;;;;;1.17;1.05;;;;;;;31.36;45.21;99961.00;5043524;28;20025;-63
2022/06/24 08:40:15;;;;;;;1.10;1.00;;;;;;;31.66;44.41;99959.06;5042186;28;20090;-63
2022/06/24 08:42:44;;;;;;;1.25;1.15;;;;;;;31.87;43.46;99970.56;5041332;28;20021;-63
2022/06/24 08:45:12;;;;;;;1.15;0.98;;;;;;;31.40;44.21;99950.38;5038713;28;20061;-63
2022/06/24 08:47:38;;;;;;;1.65;1.13;;;;;;;31.87;43.17;99949.03;5039544;28;20550;-62
2022/06/24 08:50:07;;;;;;;1.25;1.13;;;;;;;31.73;42.86;99943.81;5034991;28;20036;-63
2022/06/24 08:52:33;;;;;;;1.90;1.33;;;;;;;31.95;41.93;99938.09;5034357;28;20048;-63
2022/06/24 08:54:59;;;;;;;1.00;0.82;;;;;;;32.03;43.40;99933.47;5033508;28;20056;-63
2022/06/24 08:57:25;;;;;;;2.45;1.67;;;;;;;32.31;41.44;99930.44;5030677;28;20109;-62
2022/06/24 08:59:51;;;;;;;0.90;0.90;;;;;;;32.57;41.85;99936.25;5041139;28;20037;-63
2022/06/24 09:02:18;;;;;;;1.27;1.02;;;;;;;32.51;41.64;99933.53;5034656;28;20096;-63
2022/06/24 09:04:44;;;;;;;2.13;1.35;;;;;;;32.66;41.46;99921.94;5031229;28;20393;-62
2022/06/24 09:07:25;;;;;;;1.17;1.08;;;;;;;32.73;42.33;99924.91;5034986;28;20025;-63
2022/06/24 09:09:58;;;;;;;;;;;;;;;32.96;42.20;99919.84;5036769;28;20485;-62
2022/06/24 09:12:23;;;;;;;1.50;1.30;;;;;;;33.14;42.17;99913.50;5029438;28;19952;-63
2022/06/24 09:14:49;;;;;;;1.33;1.10;;;;;;;33.32;41.58;99914.75;5034094;28;20116;-63
2022/06/24 09:17:15;;;;;;;4.50;1.08;;;;;;;33.50;40.88;99912.00;5042361;28;20075;-63
2022/06/24 09:19:40;;;;;;;1.67;1.45;;;;;;;33.68;40.51;99916.03;5037167;28;21115;-63
2022/06/24 09:22:06;;;;;;;1.55;1.27;;;;;;;33.86;40.07;99897.69;5035600;28;20074;-63
2022/06/24 09:24:51;;;;;;;2.05;1.30;;;;;;;33.72;40.91;99907.34;5036771;28;20052;-63
2022/06/24 09:27:16;;;;;;;2.03;1.20;;;;;;;34.13;40.15;99897.22;5042083;28;20163;-63
2022/06/24 09:29:47;;;;;;;1.83;1.13;;;;;;;33.95;39.56;99900.09;5032207;28;20136;-62
2022/06/24 09:32:12;;;;;;;1.73;1.23;;;;;;;34.06;39.50;99892.28;5033187;28;20033;-63
2022/06/24 09:34:38;;;;;;;1.30;1.20;;;;;;;34.31;38.96;99895.63;5035020;28;20048;-63
2022/06/24 09:37:05;;;;;;;1.88;1.50;;;;;;;34.32;40.06;99902.75;5035610;28;20090;-63
2022/06/24 09:39:32;;;;;;;1.33;1.23;;;;;;;34.59;40.58;99895.88;5030094;28;20525;-63
2022/06/24 09:41:57;;;;;;;1.20;1.10;;;;;;;34.26;40.02;99897.22;5035208;28;20123;-63
2022/06/24 09:44:24;;;;;;;1.35;1.02;;;;;;;34.55;39.40;99892.66;5035171;28;20034;-63
2022/06/24 09:47:04;;;;;;;1.58;0.95;;;;;;;34.40;38.53;99895.94;5036993;28;20042;-63
2022/06/24 09:49:30;;;;;;;1.27;1.00;;;;;;;34.71;39.88;99891.53;5036241;28;20408;-63
2022/06/24 09:51:56;;;;;;;1.30;1.20;;;;;;;35.06;39.92;99887.50;5040211;28;20294;-63
2022/06/24 09:54:22;;;;;;;1.27;1.17;;;;;;;35.35;39.45;99895.50;5040668;28;20049;-64
2022/06/24 09:56:50;;;;;;;1.10;1.00;;;;;;;34.87;37.43;99879.25;5038128;28;20017;-63
2022/06/24 10:02:00;;;;;;;1.10;1.00;;;;;;;35.18;37.89;99881.13;5034553;28;20037;-63
2022/06/24 10:04:27;;;;;;;1.15;1.08;;;;;;;35.39;38.71;99886.75;5036312;28;20033;-63
2022/06/24 10:06:56;;;;;;;1.45;1.30;;;;;;;35.68;38.11;99888.34;5037708;28;20155;-62
2022/06/24 10:09:28;;;;;;;0.88;0.85;;;;;;;35.93;36.53;99881.13;5035486;28;20029;-63
2022/06/24 10:11:56;;;;;;;1.10;1.00;;;;;;;35.37;36.56;99883.72;5038916;28;20044;-63
2022/06/24 10:14:25;;;;;;;1.10;0.90;;;;;;;35.69;36.78;99881.47;5037758;28;20040;-63
2022/06/24 10:16:51;;;;;;;1.25;1.13;;;;;;;35.62;36.35;99898.22;5038282;28;20033;-63
2022/06/24 10:19:18;;;;;;;1.50;1.10;;;;;;;35.52;36.96;99897.94;5040512;28;20032;-63
2022/06/24 10:21:46;;;;;;;1.42;1.10;;;;;;;35.94;35.60;99905.06;5039180;28;20044;-63
2022/06/24 10:24:13;;;;;;;1.40;1.30;;;;;;;35.57;36.48;99897.06;5036972;28;20037;-63
2022/06/24 10:26:42;;;;;;;1.48;1.00;;;;;;;34.95;36.25;99890.53;5037086;28;20178;-63
2022/06/24 10:29:07;;;;;;;1.48;1.27;;;;;;;35.17;36.65;99901.28;5038683;28;21239;-64
2022/06/24 10:31:52;;;;;;;1.25;1.00;;;;;;;34.04;37.58;99880.09;5036485;28;20052;-63
2022/06/24 10:34:27;;;;;;;1.38;1.20;;;;;;;34.40;37.17;99881.19;5040754;28;20126;-63
2022/06/24 10:37:02;;;;;;;1.30;1.10;;;;;;;34.87;37.25;99876.44;5043489;28;20042;-63
2022/06/24 10:39:46;;;;;;;1.38;1.27;;;;;;;35.32;37.80;99874.19;5039565;28;20064;-64
2022/06/24 10:42:14;;;;;;;1.35;1.10;;;;;;;35.39;36.60;99881.13;5035724;28;20041;-63
2022/06/24 10:45:03;;;;;;;1.20;1.10;;;;;;;35.34;36.25;99882.03;5030274;28;20028;-62
2022/06/24 10:47:35;;;;;;;1.38;1.20;;;;;;;35.74;36.39;99874.19;5036568;28;20043;-62
2022/06/24 10:50:02;;;;;;;1.85;1.42;;;;;;;35.22;37.77;99869.56;5035435;28;20405;-63
2022/06/24 10:52:51;;;;;;;1.55;1.20;;;;;;;34.73;36.70;99866.56;5036902;28;20087;-62
2022/06/24 10:57:43;;;;;;;1.63;1.17;;;;;;;34.68;38.27;99866.69;5030797;28;20037;-63
2022/06/24 11:00:14;;;;;;;1.13;1.02;;;;;;;34.69;37.72;99857.72;5041418;28;20500;-63
2022/06/24 11:02:40;;;;;;;1.63;1.40;;;;;;;34.95;37.59;99859.72;5036023;28;20045;-62
2022/06/24 11:05:31;;;;;;;1.70;1.50;;;;;;;35.27;37.13;99846.28;5033692;28;20112;-63
2022/06/24 11:07:57;;;;;;;1.73;1.30;;;;;;;35.56;36.90;99847.16;5038821;28;20512;-63
2022/06/24 11:10:26;;;;;;;2.60;1.40;;;;;;;35.57;36.95;99840.22;5036672;28;20264;-63
2022/06/24 11:12:58;;;;;;;2.08;1.38;;;;;;;35.01;38.16;99844.34;5035964;28;20633;-62
2022/06/24 11:15:41;;;;;;;1.15;0.95;;;;;;;35.35;37.53;99827.47;5039589;28;20069;-62
2022/06/24 11:18:14;;;;;;;1.73;1.20;;;;;;;35.54;37.18;99827.31;5033863;28;20106;-63
2022/06/24 11:20:41;;;;;;;1.65;1.30;;;;;;;35.95;36.54;99832.88;5035509;28;20090;-62
2022/06/24 11:23:16;;;;;;;1.52;1.23;;;;;;;36.11;35.60;99823.25;5033416;28;20021;-62
2022/06/24 11:25:47;;;;;;;1.35;1.25;;;;;;;35.07;36.75;99819.00;5037098;28;20055;-63
2022/06/24 11:28:26;;;;;;;1.27;1.08;;;;;;;35.35;37.94;99816.28;5036652;28;20457;-63
2022/06/24 11:30:53;;;;;;;1.33;1.20;;;;;;;34.96;36.89;99814.41;5037314;28;20151;-63
2022/06/24 11:33:20;;;;;;;2.58;1.80;;;;;;;34.79;36.80;99813.22;5034351;28;20025;-62
2022/06/24 11:35:48;;;;;;;1.50;1.40;;;;;;;35.85;35.67;99817.84;5045636;28;20432;-63
2022/06/24 11:38:14;;;;;;;2.47;1.60;;;;;;;35.91;36.89;99805.19;5048534;28;20037;-63
2022/06/24 11:40:41;;;;;;;1.30;1.20;;;;;;;36.28;35.33;99811.59;5043098;28;20063;-62
2022/06/24 11:43:11;;;;;;;2.35;1.38;;;;;;;36.72;35.25;99799.06;5040926;28;20033;-62
2022/06/24 11:45:57;;;;;;;1.48;1.30;;;;;;;36.68;35.60;99796.63;5043963;28;20497;-62
2022/06/24 11:48:24;;;;;;;1.55;1.40;;;;;;;35.74;35.02;99793.63;5041912;28;20052;-62